createdAt,value
2017-12-04T00:00:07.305Z,0
2017-12-04T00:01:17.028Z,0
2017-12-04T00:02:27.012Z,0
2017-12-04T00:03:36.993Z,0
2017-12-04T00:04:46.973Z,0
2017-12-04T00:05:56.692Z,0
2017-12-04T00:07:06.696Z,0
2017-12-04T00:08:15.881Z,0
2017-12-04T00:09:25.862Z,0
2017-12-04T00:10:35.840Z,0
2017-12-04T00:11:45.825Z,0
2017-12-04T00:12:55.810Z,0
2017-12-04T00:14:05.801Z,0
2017-12-04T00:15:15.256Z,0
2017-12-04T00:16:24.704Z,0
2017-12-04T00:17:34.426Z,0
2017-12-04T00:18:44.151Z,0
2017-12-04T00:19:54.134Z,0
2017-12-04T00:21:03.863Z,0
2017-12-04T00:22:13.578Z,0
2017-12-04T00:23:23.569Z,0
2017-12-04T00:24:33.020Z,0
2017-12-04T00:25:43.004Z,0
2017-12-04T00:26:52.984Z,0
2017-12-04T00:28:02.973Z,0
2017-12-04T00:29:12.969Z,0
2017-12-04T00:30:22.422Z,0
2017-12-04T00:31:32.401Z,0
2017-12-04T00:32:42.386Z,0
2017-12-04T00:33:52.370Z,0
2017-12-04T00:35:02.351Z,0
2017-12-04T00:36:11.804Z,0
2017-12-04T00:37:21.790Z,0
2017-12-04T00:38:31.507Z,0
2017-12-04T00:39:41.489Z,0
2017-12-04T00:40:51.205Z,0
2017-12-04T00:42:01.202Z,0
2017-12-04T00:43:10.924Z,0
2017-12-04T00:44:20.905Z,0
2017-12-04T00:45:30.885Z,0
2017-12-04T00:46:40.863Z,0
2017-12-04T00:47:50.577Z,0
2017-12-04T00:49:00.559Z,0
2017-12-04T00:50:10.281Z,0
2017-12-04T00:51:20.262Z,0
2017-12-04T00:52:30.247Z,0
2017-12-04T00:53:40.234Z,0
2017-12-04T00:54:50.225Z,0
2017-12-04T00:56:00.213Z,0
2017-12-04T00:57:09.664Z,0
2017-12-04T00:58:19.644Z,0
2017-12-04T00:59:29.362Z,0
2017-12-04T01:00:39.347Z,0
2017-12-04T01:01:49.072Z,0
2017-12-04T01:02:58.787Z,0
2017-12-04T01:04:08.512Z,0
2017-12-04T01:05:18.229Z,0
2017-12-04T01:06:27.942Z,0
2017-12-04T01:07:37.657Z,0
2017-12-04T01:08:47.709Z,0
2017-12-04T01:09:57.425Z,0
2017-12-04T01:11:07.414Z,0
2017-12-04T01:12:16.875Z,0
2017-12-04T01:13:26.856Z,0
2017-12-04T01:14:36.584Z,0
2017-12-04T01:15:46.566Z,0
2017-12-04T01:16:56.549Z,0
2017-12-04T01:18:06.595Z,0
2017-12-04T01:19:16.318Z,0
2017-12-04T01:20:26.298Z,0
2017-12-04T01:21:36.276Z,0
2017-12-04T01:22:46.265Z,0
2017-12-04T01:23:56.244Z,0
2017-12-04T01:25:06.228Z,0
2017-12-04T01:26:15.945Z,0
2017-12-04T01:27:25.928Z,0
2017-12-04T01:28:35.925Z,0
2017-12-04T01:29:45.912Z,0
2017-12-04T01:30:55.897Z,0
2017-12-04T01:32:05.880Z,0
2017-12-04T01:33:15.870Z,0
2017-12-04T01:34:25.860Z,0
2017-12-04T01:35:35.845Z,0
2017-12-04T01:36:45.826Z,0
2017-12-04T01:37:55.806Z,0
2017-12-04T01:39:05.793Z,0
2017-12-04T01:40:15.294Z,0
2017-12-04T01:41:25.281Z,0
2017-12-04T01:42:34.997Z,0
2017-12-04T01:43:44.987Z,0
2017-12-04T01:44:54.969Z,0
2017-12-04T01:46:04.950Z,0
2017-12-04T01:47:14.674Z,0
2017-12-04T01:48:24.662Z,0
2017-12-04T01:49:34.113Z,0
2017-12-04T01:50:44.098Z,0
2017-12-04T01:51:53.818Z,0
2017-12-04T01:53:03.798Z,0
2017-12-04T01:54:13.514Z,0
2017-12-04T01:55:23.240Z,0
2017-12-04T01:56:32.959Z,0
2017-12-04T01:57:42.948Z,0
2017-12-04T01:58:52.939Z,0
2017-12-04T02:00:02.663Z,0
2017-12-04T02:01:12.384Z,0
2017-12-04T02:02:22.107Z,0
2017-12-04T02:03:32.090Z,0
2017-12-04T02:04:42.183Z,0
2017-12-04T02:05:52.181Z,0
2017-12-04T02:07:02.163Z,0
2017-12-04T02:08:11.615Z,0
2017-12-04T02:09:21.598Z,0
2017-12-04T02:10:31.048Z,0
2017-12-04T02:11:41.034Z,0
2017-12-04T02:12:50.484Z,0
2017-12-04T02:14:00.467Z,0
2017-12-04T02:15:10.463Z,0
2017-12-04T02:16:20.500Z,0
2017-12-04T02:17:30.488Z,0
2017-12-04T02:18:40.474Z,0
2017-12-04T02:19:50.454Z,0
2017-12-04T02:21:00.176Z,0
2017-12-04T02:22:09.637Z,0
2017-12-04T02:23:19.622Z,0
2017-12-04T02:24:29.600Z,0
2017-12-04T02:25:39.616Z,0
2017-12-04T02:26:49.598Z,0
2017-12-04T02:27:59.579Z,0
2017-12-04T02:29:09.559Z,0
2017-12-04T02:30:19.553Z,0
2017-12-04T02:31:29.540Z,0
2017-12-04T02:32:39.260Z,0
2017-12-04T02:33:49.246Z,0
2017-12-04T02:34:59.237Z,0
2017-12-04T02:36:09.230Z,0
2017-12-04T02:37:19.222Z,0
2017-12-04T02:38:29.206Z,0
2017-12-04T02:39:39.194Z,0
2017-12-04T02:40:48.648Z,0
2017-12-04T02:41:58.660Z,0
2017-12-04T02:43:08.656Z,0
2017-12-04T02:44:18.639Z,0
2017-12-04T02:45:28.363Z,0
2017-12-04T02:46:38.347Z,0
2017-12-04T02:47:48.065Z,0
2017-12-04T02:48:58.098Z,0
2017-12-04T02:50:07.817Z,0
2017-12-04T02:51:17.806Z,0
2017-12-04T02:52:27.793Z,0
2017-12-04T02:53:37.785Z,0
2017-12-04T02:54:47.769Z,0
2017-12-04T02:55:57.756Z,0
2017-12-04T02:57:07.745Z,0
2017-12-04T02:58:17.463Z,0
2017-12-04T02:59:27.447Z,0
2017-12-04T03:00:37.476Z,0
2017-12-04T03:01:47.462Z,0
2017-12-04T03:02:57.443Z,0
2017-12-04T03:04:09.211Z,0
2017-12-04T03:05:18.927Z,0
2017-12-04T03:06:28.908Z,0
2017-12-04T03:07:38.887Z,0
2017-12-04T03:08:48.878Z,0
2017-12-04T03:09:58.864Z,0
2017-12-04T03:11:08.848Z,0
2017-12-04T03:12:18.565Z,0
2017-12-04T03:13:28.278Z,0
2017-12-04T03:14:38.267Z,0
2017-12-04T03:15:48.259Z,0
2017-12-04T03:16:57.979Z,0
2017-12-04T03:18:07.698Z,0
2017-12-04T03:19:17.682Z,0
2017-12-04T03:20:27.129Z,0
2017-12-04T03:21:37.111Z,0
2017-12-04T03:22:47.090Z,0
2017-12-04T03:23:57.072Z,0
2017-12-04T03:25:06.790Z,0
2017-12-04T03:26:16.248Z,0
2017-12-04T03:27:26.232Z,0
2017-12-04T03:28:36.219Z,0
2017-12-04T03:29:46.208Z,0
2017-12-04T03:30:56.215Z,0
2017-12-04T03:32:05.934Z,0
2017-12-04T03:33:15.387Z,0
2017-12-04T03:34:25.377Z,0
2017-12-04T03:35:35.365Z,0
2017-12-04T03:36:45.361Z,0
2017-12-04T03:37:55.361Z,0
2017-12-04T03:39:05.341Z,0
2017-12-04T03:40:15.114Z,0
2017-12-04T03:41:24.827Z,0
2017-12-04T03:42:34.545Z,0
2017-12-04T03:43:44.530Z,0
2017-12-04T03:44:54.519Z,0
2017-12-04T03:46:04.502Z,0
2017-12-04T03:47:14.224Z,0
2017-12-04T03:48:24.202Z,0
2017-12-04T03:49:34.183Z,0
2017-12-04T03:50:46.165Z,0
2017-12-04T03:51:56.145Z,0
2017-12-04T03:53:06.127Z,0
2017-12-04T03:54:15.900Z,0
2017-12-04T03:55:25.889Z,0
2017-12-04T03:56:35.338Z,0
2017-12-04T03:57:45.318Z,0
2017-12-04T03:58:55.302Z,0
2017-12-04T04:00:05.283Z,0
2017-12-04T04:03:47.043Z,0
2017-12-04T04:04:57.026Z,0
2017-12-04T04:06:07.007Z,0
2017-12-04T04:07:16.724Z,0
2017-12-04T04:08:26.706Z,0
2017-12-04T04:09:36.687Z,0
2017-12-04T04:10:46.401Z,0
2017-12-04T04:11:56.381Z,0
2017-12-04T04:13:06.384Z,0
2017-12-04T04:14:16.100Z,0
2017-12-04T04:15:26.080Z,0
2017-12-04T04:16:36.058Z,0
2017-12-04T04:17:46.039Z,0
2017-12-04T04:18:56.016Z,0
2017-12-04T04:20:05.728Z,0
2017-12-04T04:21:15.186Z,0
2017-12-04T04:22:25.168Z,0
2017-12-04T04:23:34.886Z,0
2017-12-04T04:24:44.602Z,0
2017-12-04T04:25:54.580Z,0
2017-12-04T04:27:04.292Z,0
2017-12-04T04:28:14.012Z,0
2017-12-04T04:29:23.991Z,0
2017-12-04T04:30:33.987Z,0
2017-12-04T04:31:43.974Z,0
2017-12-04T04:32:53.961Z,0
2017-12-04T04:34:03.941Z,0
2017-12-04T04:35:13.665Z,0
2017-12-04T04:36:23.644Z,0
2017-12-04T04:37:33.626Z,0
2017-12-04T04:38:43.610Z,0
2017-12-04T04:39:53.585Z,0
2017-12-04T04:41:03.568Z,0
2017-12-04T04:42:13.561Z,0
2017-12-04T04:43:23.281Z,0
2017-12-04T04:44:33.044Z,0
2017-12-04T04:45:42.761Z,0
2017-12-04T04:46:52.740Z,0
2017-12-04T04:48:02.461Z,0
2017-12-04T04:49:12.183Z,0
2017-12-04T04:50:22.462Z,0
2017-12-04T04:51:32.453Z,0
2017-12-04T04:52:42.430Z,0
2017-12-04T04:53:52.414Z,0
2017-12-04T04:55:02.399Z,0
2017-12-04T04:56:12.122Z,0
2017-12-04T04:57:21.834Z,0
2017-12-04T04:58:31.551Z,0
2017-12-04T04:59:41.539Z,0
2017-12-04T05:00:50.991Z,0
2017-12-04T05:02:00.707Z,0
2017-12-04T05:03:10.692Z,0
2017-12-04T05:04:20.420Z,0
2017-12-04T05:05:30.405Z,0
2017-12-04T05:06:40.397Z,0
2017-12-04T05:07:50.376Z,0
2017-12-04T05:09:00.355Z,0
2017-12-04T05:10:10.337Z,0
2017-12-04T05:11:20.337Z,0
2017-12-04T05:12:30.057Z,0
2017-12-04T05:13:40.035Z,0
2017-12-04T05:14:49.485Z,0
2017-12-04T05:15:59.469Z,0
2017-12-04T05:17:09.188Z,0
2017-12-04T05:18:18.910Z,0
2017-12-04T05:19:28.897Z,0
2017-12-04T05:20:38.892Z,0
2017-12-04T05:21:48.870Z,0
2017-12-04T05:22:58.855Z,0
2017-12-04T05:24:08.842Z,0
2017-12-04T05:25:18.821Z,0
2017-12-04T05:26:28.801Z,0
2017-12-04T05:27:38.791Z,0
2017-12-04T05:28:48.768Z,0
2017-12-04T05:29:58.749Z,0
2017-12-04T05:31:08.470Z,0
2017-12-04T05:32:18.467Z,0
2017-12-04T05:33:28.182Z,0
2017-12-04T05:34:37.948Z,0
2017-12-04T05:35:47.664Z,0
2017-12-04T05:36:57.378Z,0
2017-12-04T05:38:07.359Z,0
2017-12-04T05:39:17.078Z,0
2017-12-04T05:40:27.053Z,0
2017-12-04T05:41:36.768Z,0
2017-12-04T05:42:46.486Z,0
2017-12-04T05:43:56.470Z,0
2017-12-04T05:45:06.448Z,0
2017-12-04T05:46:16.166Z,0
2017-12-04T05:47:26.168Z,0
2017-12-04T05:48:35.880Z,0
2017-12-04T05:49:45.868Z,0
2017-12-04T05:50:55.846Z,0
2017-12-04T05:52:05.837Z,0
2017-12-04T05:53:15.020Z,0
2017-12-04T05:54:29.393Z,0
2017-12-04T05:55:39.373Z,0
2017-12-04T05:56:49.093Z,0
2017-12-04T05:57:59.080Z,0
2017-12-04T05:59:08.803Z,0
2017-12-04T06:00:18.837Z,0
2017-12-04T06:01:28.818Z,0
2017-12-04T06:02:38.799Z,0
2017-12-04T06:03:48.512Z,0
2017-12-04T06:04:58.273Z,0
2017-12-04T06:06:07.994Z,0
2017-12-04T06:07:17.972Z,0
2017-12-04T06:08:27.950Z,0
2017-12-04T06:09:37.936Z,0
2017-12-04T06:10:47.920Z,0
2017-12-04T06:11:57.906Z,0
2017-12-04T06:13:07.886Z,0
2017-12-04T06:14:17.344Z,0
2017-12-04T06:15:27.326Z,0
2017-12-04T06:16:37.310Z,0
2017-12-04T06:17:47.026Z,0
2017-12-04T06:18:56.744Z,0
2017-12-04T06:20:06.729Z,0
2017-12-04T06:21:16.439Z,0
2017-12-04T06:22:26.434Z,0
2017-12-04T06:23:36.412Z,0
2017-12-04T06:24:46.128Z,0
2017-12-04T06:25:56.107Z,0
2017-12-04T06:27:05.820Z,0
2017-12-04T06:28:15.545Z,0
2017-12-04T06:29:25.523Z,0
2017-12-04T06:30:35.263Z,0
2017-12-04T06:31:45.253Z,0
2017-12-04T06:32:55.235Z,0
2017-12-04T06:34:04.958Z,0
2017-12-04T06:35:16.680Z,0
2017-12-04T06:36:26.131Z,0
2017-12-04T06:37:35.842Z,0
2017-12-04T06:38:45.578Z,0
2017-12-04T06:39:55.626Z,0
2017-12-04T06:41:05.606Z,0
2017-12-04T06:42:15.335Z,0
2017-12-04T06:43:25.322Z,0
2017-12-04T06:44:35.298Z,0
2017-12-04T06:45:44.748Z,0
2017-12-04T06:46:54.736Z,0
2017-12-04T06:48:04.451Z,0
2017-12-04T06:49:14.442Z,0
2017-12-04T06:50:24.158Z,0
2017-12-04T06:51:33.603Z,0
2017-12-04T06:52:43.595Z,0
2017-12-04T06:53:53.580Z,0
2017-12-04T06:55:03.591Z,0
2017-12-04T06:56:13.312Z,0
2017-12-04T06:57:23.291Z,0
2017-12-04T06:58:33.011Z,0
2017-12-04T06:59:42.730Z,0
2017-12-04T07:00:52.754Z,0
2017-12-04T07:02:02.743Z,0
2017-12-04T07:03:12.735Z,0
2017-12-04T07:04:22.736Z,0
2017-12-04T07:05:32.728Z,0
2017-12-04T07:06:42.734Z,0
2017-12-04T07:07:52.715Z,0
2017-12-04T07:09:02.441Z,0
2017-12-04T07:10:12.168Z,0
2017-12-04T07:11:22.157Z,0
2017-12-04T07:12:31.874Z,0
2017-12-04T07:13:41.857Z,0
2017-12-04T07:14:51.582Z,0
2017-12-04T07:16:01.960Z,0
2017-12-04T07:17:11.957Z,0
2017-12-04T07:18:21.940Z,0
2017-12-04T07:19:31.920Z,0
2017-12-04T07:20:41.898Z,0
2017-12-04T07:21:51.878Z,0
2017-12-04T07:23:01.860Z,0
2017-12-04T07:24:11.587Z,0
2017-12-04T07:25:21.569Z,0
2017-12-04T07:26:31.550Z,0
2017-12-04T07:27:41.525Z,0
2017-12-04T07:28:51.243Z,0
2017-12-04T07:30:01.012Z,0
2017-12-04T07:31:11.000Z,0
2017-12-04T07:32:20.722Z,0
2017-12-04T07:33:30.437Z,0
2017-12-04T07:34:40.422Z,0
2017-12-04T07:35:50.405Z,0
2017-12-04T07:37:00.434Z,0
2017-12-04T07:38:10.159Z,0
2017-12-04T07:39:20.148Z,0
2017-12-04T07:40:29.864Z,0
2017-12-04T07:41:39.578Z,0
2017-12-04T07:42:49.557Z,0
2017-12-04T07:43:59.538Z,0
2017-12-04T07:45:09.254Z,5
2017-12-04T07:46:19.241Z,5
2017-12-04T07:47:29.226Z,5
2017-12-04T07:48:38.939Z,5
2017-12-04T07:49:48.656Z,5
2017-12-04T07:50:58.636Z,5
2017-12-04T07:52:08.667Z,5
2017-12-04T07:53:18.658Z,5
2017-12-04T07:54:28.646Z,5
2017-12-04T07:55:38.631Z,10
2017-12-04T07:56:48.634Z,10
2017-12-04T07:57:58.612Z,10
2017-12-04T07:59:08.599Z,10
2017-12-04T08:00:18.314Z,10
2017-12-04T08:01:28.034Z,10
2017-12-04T08:02:37.747Z,15
2017-12-04T08:03:47.725Z,15
2017-12-04T08:04:57.758Z,15
2017-12-04T08:06:07.469Z,15
2017-12-04T08:07:17.450Z,15
2017-12-04T08:08:27.437Z,15
2017-12-04T08:09:37.158Z,20
2017-12-04T08:10:46.927Z,20
2017-12-04T08:11:56.912Z,20
2017-12-04T08:13:06.946Z,20
2017-12-04T08:14:16.927Z,25
2017-12-04T08:15:26.912Z,25
2017-12-04T08:16:36.890Z,25
2017-12-04T08:17:46.870Z,25
2017-12-04T08:18:56.851Z,25
2017-12-04T08:20:06.842Z,30
2017-12-04T08:21:16.832Z,30
2017-12-04T08:22:26.546Z,30
2017-12-04T08:23:36.532Z,30
2017-12-04T08:24:46.257Z,35
2017-12-04T08:25:55.981Z,35
2017-12-04T08:27:05.959Z,35
2017-12-04T08:28:15.676Z,35
2017-12-04T08:29:25.657Z,40
2017-12-04T08:30:35.638Z,40
2017-12-04T08:31:45.635Z,40
2017-12-04T08:32:55.359Z,40
2017-12-04T08:34:05.344Z,40
2017-12-04T08:35:15.330Z,45
2017-12-04T08:36:25.308Z,45
2017-12-04T08:37:35.294Z,45
2017-12-04T08:38:45.013Z,45
2017-12-04T08:39:54.992Z,50
2017-12-04T08:41:04.969Z,50
2017-12-04T08:42:14.950Z,55
2017-12-04T08:43:24.982Z,55
2017-12-04T08:44:34.699Z,60
2017-12-04T08:45:44.703Z,60
2017-12-04T08:46:54.684Z,60
2017-12-04T08:48:04.675Z,60
2017-12-04T08:49:14.446Z,60
2017-12-04T08:50:24.425Z,65
2017-12-04T08:51:34.408Z,65
2017-12-04T08:52:44.395Z,65
2017-12-04T08:53:54.116Z,65
2017-12-04T08:55:03.566Z,70
2017-12-04T08:56:13.545Z,70
2017-12-04T08:57:23.537Z,70
2017-12-04T08:58:33.519Z,70
2017-12-04T08:59:43.249Z,75
2017-12-04T09:00:53.231Z,75
2017-12-04T09:02:03.206Z,75
2017-12-04T09:03:13.192Z,75
2017-12-04T09:04:22.687Z,80
2017-12-04T09:05:32.406Z,80
2017-12-04T09:06:42.396Z,80
2017-12-04T09:07:52.375Z,80
2017-12-04T09:09:02.349Z,85
2017-12-04T09:10:11.818Z,85
2017-12-04T09:11:21.797Z,85
2017-12-04T09:12:31.518Z,85
2017-12-04T09:13:41.242Z,90
2017-12-04T09:14:50.957Z,90
2017-12-04T09:16:00.404Z,90
2017-12-04T09:17:10.380Z,90
2017-12-04T09:18:20.416Z,90
2017-12-04T09:19:30.129Z,95
2017-12-04T09:20:40.114Z,95
2017-12-04T09:21:49.565Z,95
2017-12-04T09:22:59.542Z,95
2017-12-04T09:24:09.259Z,100
2017-12-04T09:25:19.245Z,100
2017-12-04T09:26:29.227Z,100
2017-12-04T09:27:39.207Z,100
2017-12-04T09:28:49.190Z,100
2017-12-04T09:29:59.165Z,100
2017-12-04T09:31:09.148Z,105
2017-12-04T09:32:18.596Z,105
2017-12-04T09:33:28.586Z,105
2017-12-04T09:34:38.584Z,105
2017-12-04T09:35:48.031Z,105
2017-12-04T09:36:58.030Z,110
2017-12-04T09:38:07.764Z,110
2017-12-04T09:39:17.528Z,110
2017-12-04T09:40:27.239Z,110
2017-12-04T09:41:37.264Z,110
2017-12-04T09:42:47.250Z,115
2017-12-04T09:43:57.237Z,115
2017-12-04T09:45:07.223Z,115
2017-12-04T09:46:17.205Z,115
2017-12-04T09:47:27.216Z,115
2017-12-04T09:48:37.197Z,115
2017-12-04T09:49:46.915Z,120
2017-12-04T09:50:56.898Z,120
2017-12-04T09:52:06.878Z,120
2017-12-04T09:53:16.893Z,120
2017-12-04T09:54:26.878Z,120
2017-12-04T09:55:36.595Z,120
2017-12-04T09:56:46.579Z,120
2017-12-04T09:57:56.559Z,125
2017-12-04T09:59:06.541Z,125
2017-12-04T10:00:16.271Z,125
2017-12-04T10:01:26.254Z,125
2017-12-04T10:02:36.237Z,125
2017-12-04T10:03:46.218Z,125
2017-12-04T10:04:56.261Z,125
2017-12-04T10:06:06.260Z,130
2017-12-04T10:07:16.245Z,130
2017-12-04T10:08:25.959Z,130
2017-12-04T10:09:35.939Z,135
2017-12-04T10:10:45.923Z,130
2017-12-04T10:11:55.696Z,130
2017-12-04T10:13:05.412Z,135
2017-12-04T10:14:14.600Z,135
2017-12-04T10:15:24.581Z,135
2017-12-04T10:16:34.299Z,135
2017-12-04T10:17:44.283Z,135
2017-12-04T10:18:54.263Z,135
2017-12-04T10:20:04.241Z,135
2017-12-04T10:21:14.225Z,140
2017-12-04T10:22:24.210Z,140
2017-12-04T10:23:33.927Z,145
2017-12-04T10:24:43.908Z,140
2017-12-04T10:25:53.892Z,140
2017-12-04T10:27:03.344Z,245
2017-12-04T10:28:13.331Z,385
2017-12-04T10:29:22.787Z,405
2017-12-04T10:30:32.771Z,415
2017-12-04T10:31:42.761Z,435
2017-12-04T10:32:52.509Z,445
2017-12-04T10:34:02.500Z,415
2017-12-04T10:35:12.226Z,365
2017-12-04T10:36:21.945Z,330
2017-12-04T10:37:31.404Z,310
2017-12-04T10:38:41.386Z,290
2017-12-04T10:39:51.374Z,275
2017-12-04T10:41:01.094Z,270
2017-12-04T10:42:11.080Z,265
2017-12-04T10:43:20.803Z,260
2017-12-04T10:44:30.791Z,260
2017-12-04T10:45:40.511Z,260
2017-12-04T10:46:50.502Z,260
2017-12-04T10:48:00.499Z,260
2017-12-04T10:49:10.606Z,260
2017-12-04T10:50:20.601Z,265
2017-12-04T10:51:30.584Z,265
2017-12-04T10:52:40.577Z,270
2017-12-04T10:53:50.570Z,270
2017-12-04T10:55:00.608Z,275
2017-12-04T10:56:10.282Z,275
2017-12-04T10:57:20.279Z,275
2017-12-04T10:58:30.275Z,280
2017-12-04T10:59:40.268Z,280
2017-12-04T11:00:49.464Z,280
2017-12-04T11:01:59.192Z,280
2017-12-04T11:03:08.927Z,280
2017-12-04T11:04:18.658Z,285
2017-12-04T11:05:28.643Z,285
2017-12-04T11:06:38.626Z,285
2017-12-04T11:07:48.349Z,290
2017-12-04T11:08:58.338Z,290
2017-12-04T11:10:07.530Z,290
2017-12-04T11:11:17.526Z,290
2017-12-04T11:12:27.523Z,295
2017-12-04T11:13:37.512Z,295
2017-12-04T11:14:47.234Z,300
2017-12-04T11:15:56.698Z,300
2017-12-04T11:17:06.692Z,300
2017-12-04T11:18:16.678Z,305
2017-12-04T11:19:26.405Z,300
2017-12-04T11:20:36.399Z,305
2017-12-04T11:21:46.383Z,305
2017-12-04T11:22:56.112Z,305
2017-12-04T11:24:06.104Z,305
2017-12-04T11:25:16.098Z,305
2017-12-04T11:26:26.096Z,310
2017-12-04T11:27:36.086Z,315
2017-12-04T11:28:46.069Z,315
2017-12-04T11:29:56.061Z,320
2017-12-04T11:31:06.049Z,320
2017-12-04T11:32:15.505Z,320
2017-12-04T11:33:25.498Z,325
2017-12-04T11:34:35.484Z,325
2017-12-04T11:35:45.206Z,310
2017-12-04T11:36:55.198Z,320
2017-12-04T11:38:05.192Z,320
2017-12-04T11:39:15.187Z,320
2017-12-04T11:40:24.920Z,320
2017-12-04T11:41:34.910Z,320
2017-12-04T11:42:44.649Z,320
2017-12-04T11:43:54.688Z,320
2017-12-04T11:45:04.731Z,320
2017-12-04T11:46:15.174Z,325
2017-12-04T11:47:24.975Z,330
2017-12-04T11:48:34.981Z,325
2017-12-04T11:49:44.973Z,330
2017-12-04T11:50:54.709Z,200
2017-12-04T11:52:04.700Z,175
2017-12-04T11:53:14.684Z,175
2017-12-04T11:54:24.405Z,165
2017-12-04T11:55:34.407Z,125
2017-12-04T11:56:44.403Z,125
2017-12-04T11:57:54.388Z,120
2017-12-04T11:59:04.377Z,115
2017-12-04T12:00:14.363Z,110
2017-12-04T12:01:24.349Z,110
2017-12-04T12:02:34.343Z,105
2017-12-04T12:03:44.061Z,100
2017-12-04T12:04:54.079Z,100
2017-12-04T12:06:04.072Z,100
2017-12-04T12:07:14.062Z,95
2017-12-04T12:08:24.050Z,95
2017-12-04T12:09:33.775Z,100
2017-12-04T12:10:43.759Z,90
2017-12-04T12:11:53.481Z,90
2017-12-04T12:13:03.467Z,90
2017-12-04T12:14:13.187Z,90
2017-12-04T12:15:22.904Z,90
2017-12-04T12:16:32.937Z,90
2017-12-04T12:17:42.921Z,90
2017-12-04T12:18:52.653Z,90
2017-12-04T12:20:02.381Z,95
2017-12-04T12:21:12.371Z,100
2017-12-04T12:22:22.354Z,95
2017-12-04T12:23:32.074Z,95
2017-12-04T12:24:41.794Z,100
2017-12-04T12:25:51.509Z,100
2017-12-04T12:27:01.492Z,95
2017-12-04T12:28:11.476Z,100
2017-12-04T12:29:20.929Z,100
2017-12-04T12:30:30.917Z,100
2017-12-04T12:31:40.912Z,105
2017-12-04T12:32:50.375Z,110
2017-12-04T12:33:59.837Z,105
2017-12-04T12:35:09.556Z,95
2017-12-04T12:36:19.538Z,90
2017-12-04T12:37:29.527Z,85
2017-12-04T12:38:39.523Z,85
2017-12-04T12:39:49.511Z,90
2017-12-04T12:40:59.508Z,90
2017-12-04T12:42:09.489Z,85
2017-12-04T12:43:19.479Z,85
2017-12-04T12:44:29.465Z,85
2017-12-04T12:45:39.475Z,80
2017-12-04T12:46:49.459Z,80
2017-12-04T12:48:01.995Z,80
2017-12-04T12:49:11.983Z,80
2017-12-04T12:50:21.975Z,80
2017-12-04T12:51:31.694Z,80
2017-12-04T12:52:41.682Z,80
2017-12-04T12:53:51.135Z,80
2017-12-04T12:55:00.849Z,80
2017-12-04T12:56:10.580Z,80
2017-12-04T12:57:20.661Z,75
2017-12-04T12:58:30.655Z,75
2017-12-04T12:59:40.700Z,75
2017-12-04T13:00:50.685Z,75
2017-12-04T13:02:00.666Z,75
2017-12-04T13:03:10.395Z,75
2017-12-04T13:04:20.385Z,75
2017-12-04T13:05:30.368Z,75
2017-12-04T13:06:40.369Z,75
2017-12-04T13:07:50.352Z,75
2017-12-04T13:09:00.334Z,75
2017-12-04T13:10:09.525Z,70
2017-12-04T13:11:19.514Z,70
2017-12-04T13:12:29.495Z,70
2017-12-04T13:13:39.481Z,70
2017-12-04T13:14:49.198Z,70
2017-12-04T13:15:59.182Z,70
2017-12-04T13:17:08.632Z,65
2017-12-04T13:18:18.623Z,65
2017-12-04T13:19:28.665Z,65
2017-12-04T13:20:38.696Z,60
2017-12-04T13:21:48.414Z,60
2017-12-04T13:22:58.132Z,60
2017-12-04T13:24:08.117Z,55
2017-12-04T13:25:17.847Z,55
2017-12-04T13:26:27.912Z,50
2017-12-04T13:27:37.895Z,45
2017-12-04T13:28:47.611Z,45
2017-12-04T13:29:57.328Z,40
2017-12-04T13:31:07.309Z,40
2017-12-04T13:32:17.298Z,40
2017-12-04T13:33:27.278Z,35
2017-12-04T13:34:37.262Z,35
2017-12-04T13:35:47.244Z,35
2017-12-04T13:36:56.967Z,35
2017-12-04T13:38:06.987Z,30
2017-12-04T13:39:16.971Z,30
2017-12-04T13:40:26.955Z,30
2017-12-04T13:41:36.406Z,30
2017-12-04T13:42:46.434Z,30
2017-12-04T13:43:56.443Z,30
2017-12-04T13:45:06.428Z,25
2017-12-04T13:46:16.414Z,25
2017-12-04T13:47:26.398Z,25
2017-12-04T13:48:36.384Z,25
2017-12-04T13:49:46.117Z,25
2017-12-04T13:50:56.101Z,20
2017-12-04T13:52:06.083Z,20
2017-12-04T13:53:16.066Z,20
2017-12-04T13:54:25.782Z,20
2017-12-04T13:55:35.497Z,20
2017-12-04T13:56:45.213Z,20
2017-12-04T13:57:55.195Z,15
2017-12-04T13:59:05.179Z,15
2017-12-04T14:00:14.911Z,15
2017-12-04T14:01:24.902Z,15
2017-12-04T14:02:34.629Z,15
2017-12-04T14:03:44.350Z,15
2017-12-04T14:04:54.330Z,15
2017-12-04T14:06:03.784Z,15
2017-12-04T14:07:13.499Z,10
2017-12-04T14:08:23.486Z,10
2017-12-04T14:09:33.471Z,10
2017-12-04T14:10:43.190Z,10
2017-12-04T14:11:53.183Z,10
2017-12-04T14:13:02.900Z,10
2017-12-04T14:14:12.884Z,10
2017-12-04T14:15:22.867Z,10
2017-12-04T14:16:32.585Z,5
2017-12-04T14:17:42.568Z,5
2017-12-04T14:18:52.284Z,5
2017-12-04T14:20:01.786Z,5
2017-12-04T14:21:11.782Z,5
2017-12-04T14:22:21.774Z,5
2017-12-04T14:23:31.753Z,5
2017-12-04T14:24:41.205Z,5
2017-12-04T14:25:51.198Z,5
2017-12-04T14:27:01.181Z,0
2017-12-04T14:28:11.163Z,0
2017-12-04T14:29:20.884Z,0
2017-12-04T14:30:30.871Z,0
2017-12-04T14:31:40.856Z,0
2017-12-04T14:32:51.902Z,0
2017-12-04T14:34:01.678Z,0
2017-12-04T14:35:11.660Z,0
2017-12-04T14:36:21.641Z,0
2017-12-04T14:37:31.361Z,0
2017-12-04T14:38:41.599Z,0
2017-12-04T14:39:51.583Z,0
2017-12-04T14:41:01.298Z,0
2017-12-04T14:42:11.018Z,0
2017-12-04T14:43:20.773Z,0
2017-12-04T14:44:32.492Z,0
2017-12-04T14:45:42.206Z,0
2017-12-04T14:46:51.920Z,0
2017-12-04T14:48:01.646Z,0
2017-12-04T14:49:11.632Z,0
2017-12-04T14:50:21.647Z,0
2017-12-04T14:51:31.629Z,0
2017-12-04T14:52:41.609Z,0
2017-12-04T14:53:51.321Z,0
2017-12-04T14:55:01.302Z,0
2017-12-04T14:56:11.283Z,0
2017-12-04T14:57:21.263Z,0
2017-12-04T14:58:31.246Z,0
2017-12-04T14:59:41.223Z,0
2017-12-04T15:00:50.940Z,0
2017-12-04T15:02:00.719Z,0
2017-12-04T15:03:10.441Z,0
2017-12-04T15:04:20.435Z,0
2017-12-04T15:05:30.413Z,0
2017-12-04T15:06:40.134Z,0
2017-12-04T15:07:50.129Z,0
2017-12-04T15:09:00.115Z,0
2017-12-04T15:10:09.835Z,0
2017-12-04T15:11:19.550Z,0
2017-12-04T15:12:29.264Z,0
2017-12-04T15:13:39.241Z,0
2017-12-04T15:14:49.226Z,0
2017-12-04T15:15:59.215Z,0
2017-12-04T15:17:08.663Z,0
2017-12-04T15:18:18.649Z,0
2017-12-04T15:19:28.648Z,0
2017-12-04T15:20:38.632Z,0
2017-12-04T15:21:48.617Z,0
2017-12-04T15:22:58.596Z,0
2017-12-04T15:24:08.575Z,0
2017-12-04T15:25:18.557Z,0
2017-12-04T15:26:28.272Z,0
2017-12-04T15:27:38.263Z,0
2017-12-04T15:28:48.249Z,0
2017-12-04T15:29:58.231Z,0
2017-12-04T15:31:07.680Z,0
2017-12-04T15:32:17.397Z,0
2017-12-04T15:33:27.114Z,0
2017-12-04T15:34:37.095Z,0
2017-12-04T15:35:47.074Z,0
2017-12-04T15:36:57.056Z,0
2017-12-04T15:38:06.774Z,0
2017-12-04T15:39:16.759Z,0
2017-12-04T15:40:26.471Z,0
2017-12-04T15:41:36.459Z,0
2017-12-04T15:42:46.176Z,0
2017-12-04T15:43:56.162Z,0
2017-12-04T15:45:06.141Z,0
2017-12-04T15:46:16.121Z,0
2017-12-04T15:47:26.103Z,0
2017-12-04T15:48:36.084Z,0
2017-12-04T15:49:46.069Z,0
2017-12-04T15:50:56.051Z,0
2017-12-04T15:52:06.037Z,0
2017-12-04T15:53:15.495Z,0
2017-12-04T15:54:25.477Z,0
2017-12-04T15:55:35.190Z,0
2017-12-04T15:56:45.171Z,0
2017-12-04T15:57:55.151Z,0
2017-12-04T15:59:04.870Z,0
2017-12-04T16:00:14.583Z,0
2017-12-04T16:01:24.574Z,0
2017-12-04T16:02:34.027Z,0
2017-12-04T16:03:43.501Z,0
2017-12-04T16:04:53.483Z,0
2017-12-04T16:06:03.204Z,0
2017-12-04T16:07:13.201Z,0
2017-12-04T16:08:22.914Z,0
2017-12-04T16:09:32.899Z,0
2017-12-04T16:10:42.933Z,0
2017-12-04T16:11:52.915Z,0
2017-12-04T16:13:02.634Z,0
2017-12-04T16:14:12.618Z,0
2017-12-04T16:15:22.603Z,0
2017-12-04T16:16:32.585Z,0
2017-12-04T16:17:44.299Z,0
2017-12-04T16:18:54.283Z,0
2017-12-04T16:20:04.277Z,0
2017-12-04T16:21:13.993Z,0
2017-12-04T16:22:23.988Z,0
2017-12-04T16:23:33.969Z,0
2017-12-04T16:24:43.683Z,0
2017-12-04T16:25:53.663Z,0
2017-12-04T16:27:03.377Z,0
2017-12-04T16:28:13.362Z,0
2017-12-04T16:29:23.404Z,0
2017-12-04T16:30:33.385Z,0
2017-12-04T16:31:43.099Z,0
2017-12-04T16:32:52.841Z,0
2017-12-04T16:34:02.829Z,0
2017-12-04T16:35:12.554Z,0
2017-12-04T16:36:22.275Z,0
2017-12-04T16:37:32.263Z,0
2017-12-04T16:38:42.245Z,0
2017-12-04T16:39:52.226Z,0
2017-12-04T16:41:02.264Z,0
2017-12-04T16:42:11.985Z,0
2017-12-04T16:43:21.697Z,0
2017-12-04T16:44:31.686Z,0
2017-12-04T16:45:41.400Z,0
2017-12-04T16:46:51.379Z,0
2017-12-04T16:48:01.358Z,0
2017-12-04T16:49:11.075Z,0
2017-12-04T16:50:21.059Z,0
2017-12-04T16:51:31.042Z,0
2017-12-04T16:52:40.771Z,0
2017-12-04T16:53:50.753Z,0
2017-12-04T16:55:00.733Z,0